createdAt,value
2023-05-01T00:00:16.743Z,100.00
2023-05-01T00:02:45.733Z,100.00
2023-05-01T00:05:14.556Z,100.00
2023-05-01T00:07:43.649Z,100.00
2023-05-01T00:10:12.393Z,100.00
2023-05-01T00:12:41.147Z,100.00
2023-05-01T00:15:10.846Z,100.00
2023-05-01T00:17:39.686Z,100.00
2023-05-01T00:20:09.767Z,100.00
2023-05-01T00:22:38.612Z,100.00
2023-05-01T00:25:08.167Z,100.00
2023-05-01T00:27:36.835Z,100.00
2023-05-01T00:30:07.590Z,100.00
2023-05-01T00:32:36.367Z,100.00
2023-05-01T00:35:05.307Z,100.00
2023-05-01T00:37:34.088Z,100.00
2023-05-01T00:40:03.134Z,100.00
2023-05-01T00:42:37.220Z,100.00
2023-05-01T00:45:07.494Z,100.00
2023-05-01T00:47:41.257Z,100.00
2023-05-01T00:50:10.797Z,100.00
2023-05-01T00:52:39.655Z,100.00
2023-05-01T00:55:11.105Z,100.00
2023-05-01T00:57:40.023Z,100.00
2023-05-01T01:00:11.460Z,100.00
2023-05-01T01:02:41.139Z,100.00
2023-05-01T01:05:10.062Z,100.00
2023-05-01T01:10:41.962Z,100.00
2023-05-01T01:13:22.410Z,100.00
2023-05-01T01:16:09.792Z,100.00
2023-05-01T01:19:00.864Z,100.00
2023-05-01T01:21:38.570Z,100.00
2023-05-01T01:24:35.812Z,100.00
2023-05-01T01:27:30.407Z,100.00
2023-05-01T01:30:08.242Z,100.00
2023-05-01T01:33:00.816Z,100.00
2023-05-01T01:35:31.631Z,100.00
2023-05-01T01:38:03.654Z,100.00
2023-05-01T01:40:38.237Z,100.00
2023-05-01T01:43:12.222Z,100.00
2023-05-01T01:45:47.222Z,100.00
2023-05-01T01:48:18.936Z,100.00
2023-05-01T01:50:48.763Z,100.00
2023-05-01T01:53:19.445Z,100.00
2023-05-01T01:55:51.387Z,100.00
2023-05-01T01:58:24.552Z,100.00
2023-05-01T02:00:54.859Z,100.00
2023-05-01T02:03:25.317Z,100.00
2023-05-01T02:05:56.251Z,100.00
2023-05-01T02:08:26.569Z,100.00
2023-05-01T02:11:00.916Z,100.00
2023-05-01T02:13:31.390Z,100.00
2023-05-01T02:16:01.834Z,100.00
2023-05-01T02:18:32.371Z,100.00
2023-05-01T02:21:02.161Z,100.00
2023-05-01T02:23:32.131Z,100.00
2023-05-01T02:26:03.928Z,100.00
2023-05-01T02:28:35.146Z,100.00
2023-05-01T02:31:03.875Z,100.00
2023-05-01T02:33:32.573Z,100.00
2023-05-01T02:36:01.312Z,100.00
2023-05-01T02:38:30.721Z,100.00
2023-05-01T02:41:01.351Z,100.00
2023-05-01T02:43:32.442Z,100.00
2023-05-01T02:46:02.723Z,100.00
2023-05-01T02:48:33.188Z,100.00
2023-05-01T02:51:03.644Z,100.00
2023-05-01T02:53:33.721Z,100.00
2023-05-01T02:56:03.753Z,100.00
2023-05-01T02:58:33.839Z,100.00
2023-05-01T03:01:02.776Z,100.00
2023-05-01T03:03:31.535Z,100.00
2023-05-01T03:06:00.643Z,100.00
2023-05-01T03:08:29.353Z,100.00
2023-05-01T03:10:57.965Z,100.00
2023-05-01T03:13:28.761Z,100.00
2023-05-01T03:15:57.520Z,100.00
2023-05-01T03:18:26.410Z,100.00
2023-05-01T03:20:57.052Z,100.00
2023-05-01T03:23:26.201Z,100.00
2023-05-01T03:25:54.862Z,100.00
2023-05-01T03:28:23.818Z,100.00
2023-05-01T03:30:53.500Z,100.00
2023-05-01T03:33:22.376Z,100.00
2023-05-01T03:35:52.463Z,100.00
2023-05-01T03:38:21.225Z,100.00
2023-05-01T03:40:49.947Z,100.00
2023-05-01T03:43:18.612Z,100.00
2023-05-01T03:45:47.235Z,100.00
2023-05-01T03:48:15.924Z,100.00
2023-05-01T03:50:44.855Z,100.00
2023-05-01T03:53:14.267Z,100.00
2023-05-01T03:55:43.113Z,100.00
2023-05-01T03:58:12.839Z,100.00
2023-05-01T04:00:41.897Z,100.00
2023-05-01T04:03:10.733Z,100.00
2023-05-01T04:05:39.646Z,100.00
2023-05-01T04:08:09.117Z,100.00
2023-05-01T04:10:37.815Z,100.00
2023-05-01T04:13:07.124Z,100.00
2023-05-01T04:15:35.981Z,100.00
2023-05-01T04:18:05.319Z,100.00
2023-05-01T04:20:34.371Z,100.00
2023-05-01T04:23:03.511Z,100.00
2023-05-01T04:25:32.166Z,100.00
2023-05-01T04:28:00.858Z,100.00
2023-05-01T04:30:31.155Z,100.00
2023-05-01T04:32:59.953Z,100.00
2023-05-01T04:35:28.646Z,100.00
2023-05-01T04:37:57.426Z,100.00
2023-05-01T04:40:26.206Z,100.00
2023-05-01T04:42:54.951Z,100.00
2023-05-01T04:45:23.620Z,100.00
2023-05-01T04:47:52.331Z,100.00
2023-05-01T04:50:23.493Z,100.00
2023-05-01T04:52:59.298Z,100.00
2023-05-01T04:55:30.376Z,100.00
2023-05-01T04:57:58.667Z,100.00
2023-05-01T05:00:28.212Z,100.00
2023-05-01T05:02:58.643Z,100.00
2023-05-01T05:05:28.214Z,100.00
2023-05-01T05:07:57.046Z,100.00
2023-05-01T05:10:26.802Z,100.00
2023-05-01T05:12:55.938Z,100.00
2023-05-01T05:15:31.133Z,100.00
2023-05-01T05:17:59.963Z,100.00
2023-05-01T05:20:28.755Z,100.00
2023-05-01T05:23:00.306Z,100.00
2023-05-01T05:25:29.017Z,100.00
2023-05-01T05:27:57.790Z,100.00
2023-05-01T05:30:26.543Z,100.00
2023-05-01T05:33:01.565Z,100.00
2023-05-01T05:35:30.515Z,100.00
2023-05-01T05:37:59.450Z,100.00
2023-05-01T05:40:28.176Z,100.00
2023-05-01T05:42:57.412Z,100.00
2023-05-01T05:45:26.213Z,100.00
2023-05-01T05:47:55.017Z,100.00
2023-05-01T05:50:23.885Z,100.00
2023-05-01T05:52:52.692Z,100.00
2023-05-01T05:55:21.391Z,100.00
2023-05-01T05:57:50.880Z,100.00
2023-05-01T06:00:20.016Z,100.00
2023-05-01T06:02:48.907Z,100.00
2023-05-01T06:05:19.918Z,100.00
2023-05-01T06:07:48.998Z,100.00
2023-05-01T06:10:17.783Z,100.00
2023-05-01T06:12:54.353Z,100.00
2023-05-01T06:15:21.800Z,100.00
2023-05-01T06:17:50.932Z,100.00
2023-05-01T06:20:25.959Z,100.00
2023-05-01T06:22:54.897Z,100.00
2023-05-01T06:25:26.864Z,100.00
2023-05-01T06:31:33.710Z,100.00
2023-05-01T06:34:02.524Z,100.00
2023-05-01T06:40:08.837Z,100.00
2023-05-01T06:42:51.060Z,100.00
2023-05-01T06:45:27.971Z,100.00
2023-05-01T06:48:02.505Z,100.00
2023-05-01T06:50:31.740Z,100.00
2023-05-01T06:53:05.638Z,100.00
2023-05-01T06:55:35.843Z,100.00
2023-05-01T06:58:15.985Z,100.00
2023-05-01T07:00:40.300Z,100.00
2023-05-01T07:10:07.525Z,100.00
2023-05-01T07:12:36.436Z,100.00
2023-05-01T07:15:10.557Z,100.00
2023-05-01T07:17:44.211Z,100.00
2023-05-01T07:20:14.133Z,100.00
2023-05-01T07:22:44.435Z,100.00
2023-05-01T07:25:13.664Z,100.00
2023-05-01T07:27:47.234Z,100.00
2023-05-01T07:33:44.443Z,100.00
2023-05-01T07:36:13.195Z,100.00
2023-05-01T07:38:43.937Z,100.00
2023-05-01T07:41:15.273Z,100.00
2023-05-01T07:43:45.526Z,100.00
2023-05-01T07:46:15.990Z,100.00
2023-05-01T07:48:46.635Z,100.00
2023-05-01T07:54:26.686Z,100.00
2023-05-01T08:01:08.904Z,100.00
2023-05-01T08:03:38.159Z,100.00
2023-05-01T08:06:14.749Z,100.00
2023-05-01T08:08:43.544Z,100.00
2023-05-01T08:11:16.918Z,100.00
2023-05-01T08:13:47.440Z,100.00
2023-05-01T08:16:17.093Z,100.00
2023-05-01T08:18:48.442Z,100.00
2023-05-01T08:21:20.725Z,100.00
2023-05-01T08:23:51.474Z,100.00
2023-05-01T08:26:22.476Z,100.00
2023-05-01T08:28:55.074Z,100.00
2023-05-01T08:31:25.426Z,100.00
2023-05-01T08:33:54.213Z,100.00
2023-05-01T08:36:23.067Z,100.00
2023-05-01T08:38:51.735Z,100.00
2023-05-01T08:41:23.930Z,70.12
2023-05-01T08:43:52.971Z,68.74
2023-05-01T08:46:30.544Z,70.49
2023-05-01T08:49:04.300Z,69.52
2023-05-01T08:51:33.993Z,66.19
2023-05-01T08:54:04.449Z,65.06
2023-05-01T08:56:34.787Z,62.59
2023-05-01T08:59:13.450Z,60.74
2023-05-01T09:01:47.449Z,52.31
2023-05-01T09:04:17.615Z,51.99
2023-05-01T09:06:46.665Z,51.15
2023-05-01T09:09:16.412Z,51.32
2023-05-01T09:11:46.472Z,50.31
2023-05-01T09:14:15.335Z,48.64
2023-05-01T09:16:50.163Z,48.19
2023-05-01T09:22:24.932Z,49.14
2023-05-01T09:24:53.749Z,49.23
2023-05-01T09:27:26.922Z,48.70
2023-05-01T09:30:04.600Z,47.97
2023-05-01T09:32:35.368Z,48.21
2023-05-01T09:35:18.379Z,47.97
2023-05-01T09:37:50.252Z,47.48
2023-05-01T09:40:34.744Z,47.66
2023-05-01T09:43:05.182Z,48.44
2023-05-01T09:45:34.187Z,46.99
2023-05-01T09:48:13.495Z,48.02
2023-05-01T09:50:48.855Z,46.34
2023-05-01T09:53:17.829Z,43.43
2023-05-01T09:55:49.581Z,42.95
2023-05-01T09:58:30.449Z,45.12
2023-05-01T10:00:59.435Z,45.45
2023-05-01T10:03:28.429Z,45.41
2023-05-01T10:05:59.124Z,45.28
2023-05-01T10:08:30.207Z,43.96
2023-05-01T10:11:05.536Z,43.19
2023-05-01T10:13:37.457Z,42.14
2023-05-01T10:16:08.198Z,43.58
2023-05-01T10:18:39.291Z,44.81
2023-05-01T10:21:15.385Z,44.44
2023-05-01T10:23:46.896Z,44.62
2023-05-01T10:26:31.642Z,45.38
2023-05-01T10:28:53.646Z,45.39
2023-05-01T10:31:23.821Z,45.49
2023-05-01T10:33:53.277Z,44.88
2023-05-01T10:36:34.186Z,43.25
2023-05-01T10:39:05.764Z,43.11
2023-05-01T10:42:00.543Z,43.04
2023-05-01T10:44:38.459Z,43.30
2023-05-01T10:47:30.279Z,44.11
2023-05-01T10:50:20.816Z,42.83
2023-05-01T10:56:32.756Z,43.45
2023-05-01T10:59:06.751Z,43.04
2023-05-01T11:01:38.118Z,42.22
2023-05-01T11:04:26.133Z,42.06
2023-05-01T11:07:11.188Z,42.32
2023-05-01T11:09:49.467Z,42.57
2023-05-01T11:12:39.192Z,43.15
2023-05-01T11:15:08.868Z,43.07
2023-05-01T11:17:47.013Z,42.75
2023-05-01T11:20:29.094Z,42.13
2023-05-01T11:22:58.872Z,42.20
2023-05-01T11:25:31.290Z,41.50
2023-05-01T11:28:02.682Z,40.39
2023-05-01T11:30:41.301Z,40.79
2023-05-01T11:33:11.558Z,40.53
2023-05-01T11:35:41.218Z,39.60
2023-05-01T11:38:19.599Z,40.28
2023-05-01T11:40:53.514Z,39.65
2023-05-01T11:43:25.999Z,38.49
2023-05-01T11:45:56.290Z,38.26
2023-05-01T11:48:45.158Z,38.78
2023-05-01T11:51:16.520Z,38.26
2023-05-01T11:53:48.371Z,39.11
2023-05-01T11:56:27.173Z,38.47
2023-05-01T11:59:00.221Z,39.01
2023-05-01T12:01:37.312Z,38.80
2023-05-01T12:04:08.220Z,39.12
2023-05-01T12:06:45.739Z,39.15
2023-05-01T12:09:23.453Z,39.20
2023-05-01T12:11:54.485Z,38.98
2023-05-01T12:14:24.623Z,39.03
2023-05-01T12:16:53.717Z,38.16
2023-05-01T12:19:23.908Z,38.13
2023-05-01T12:22:06.925Z,36.80
2023-05-01T12:24:35.841Z,36.57
2023-05-01T12:27:04.884Z,36.60
2023-05-01T12:29:44.890Z,35.50
2023-05-01T12:32:14.466Z,36.47
2023-05-01T12:34:43.629Z,37.52
2023-05-01T12:37:12.643Z,40.49
2023-05-01T12:39:45.019Z,42.00
2023-05-01T12:42:16.036Z,42.80
2023-05-01T12:44:45.479Z,41.53
2023-05-01T12:47:14.966Z,40.32
2023-05-01T12:49:43.834Z,40.91
2023-05-01T12:52:12.597Z,41.74
2023-05-01T12:54:43.397Z,41.90
2023-05-01T12:57:16.687Z,40.66
2023-05-01T12:59:51.134Z,41.09
2023-05-01T13:04:56.675Z,42.47
2023-05-01T13:07:25.391Z,42.61
2023-05-01T13:09:59.596Z,42.45
2023-05-01T13:12:29.317Z,42.62
2023-05-01T13:14:58.477Z,42.85
2023-05-01T13:17:33.064Z,43.27
2023-05-01T13:20:05.092Z,42.28
2023-05-01T13:22:38.527Z,41.58
2023-05-01T13:25:20.801Z,41.62
2023-05-01T13:27:51.585Z,41.35
2023-05-01T13:30:22.531Z,40.95
2023-05-01T13:32:51.305Z,40.54
2023-05-01T13:35:26.919Z,39.91
2023-05-01T13:37:56.170Z,39.61
2023-05-01T13:40:27.176Z,39.47
2023-05-01T13:42:55.770Z,38.96
2023-05-01T13:45:26.021Z,38.25
2023-05-01T13:48:10.850Z,38.57
2023-05-01T13:50:42.971Z,38.53
2023-05-01T13:57:31.110Z,39.39
2023-05-01T13:59:51.758Z,39.65
2023-05-01T14:02:28.005Z,39.72
2023-05-01T14:08:05.604Z,39.06
2023-05-01T14:10:37.092Z,39.15
2023-05-01T14:13:06.835Z,40.03
2023-05-01T14:15:36.182Z,39.87
2023-05-01T14:18:08.291Z,39.88
2023-05-01T14:20:50.784Z,38.99
2023-05-01T14:23:39.887Z,40.14
2023-05-01T14:26:09.296Z,39.68
2023-05-01T14:28:41.505Z,39.18
2023-05-01T14:31:34.535Z,37.90
2023-05-01T14:34:08.863Z,36.66
2023-05-01T14:36:51.657Z,35.89
2023-05-01T14:39:27.062Z,35.61
2023-05-01T14:41:59.409Z,35.65
2023-05-01T14:44:32.361Z,35.19
2023-05-01T14:47:05.013Z,35.00
2023-05-01T14:49:36.599Z,34.62
2023-05-01T14:55:13.598Z,34.92
2023-05-01T14:57:46.263Z,35.42
2023-05-01T15:00:18.147Z,34.18
2023-05-01T15:02:47.534Z,33.92
2023-05-01T15:05:17.115Z,33.80
2023-05-01T15:07:47.119Z,33.62
2023-05-01T15:10:16.149Z,33.94
2023-05-01T15:12:45.520Z,33.66
2023-05-01T15:15:14.617Z,33.99
2023-05-01T15:17:47.857Z,33.27
2023-05-01T15:20:16.844Z,32.70
2023-05-01T15:22:45.541Z,33.17
2023-05-01T15:25:14.912Z,32.70
2023-05-01T15:27:45.786Z,32.86
2023-05-01T15:30:22.699Z,33.38
2023-05-01T15:32:56.006Z,33.30
2023-05-01T15:35:26.811Z,33.56
2023-05-01T15:37:59.130Z,33.74
2023-05-01T15:40:27.954Z,33.73
2023-05-01T15:43:08.844Z,34.15
2023-05-01T15:45:48.441Z,34.20
2023-05-01T15:48:17.597Z,34.53
2023-05-01T15:54:00.751Z,34.49
2023-05-01T15:56:31.731Z,34.58
2023-05-01T16:02:10.019Z,34.86
2023-05-01T16:04:39.512Z,36.15
2023-05-01T16:07:13.839Z,36.69
2023-05-01T16:09:44.760Z,37.86
2023-05-01T16:12:13.916Z,39.00
2023-05-01T16:14:54.688Z,39.73
2023-05-01T16:17:34.048Z,40.42
2023-05-01T16:20:35.501Z,40.72
2023-05-01T16:23:16.934Z,40.78
2023-05-01T16:25:47.054Z,40.96
2023-05-01T16:28:40.051Z,41.67
2023-05-01T16:31:27.564Z,42.31
2023-05-01T16:37:01.079Z,43.11
2023-05-01T16:39:31.071Z,43.61
2023-05-01T16:42:40.347Z,43.91
2023-05-01T16:45:28.733Z,44.20
2023-05-01T16:48:05.074Z,44.73
2023-05-01T16:50:34.268Z,45.03
2023-05-01T16:53:10.635Z,45.19
2023-05-01T16:55:40.606Z,45.75
2023-05-01T16:58:11.266Z,47.09
2023-05-01T17:00:40.308Z,46.77
2023-05-01T17:03:10.634Z,47.97
2023-05-01T17:05:43.166Z,48.22
2023-05-01T17:08:14.447Z,48.19
2023-05-01T17:10:45.199Z,48.55
2023-05-01T17:13:16.712Z,49.23
2023-05-01T17:15:45.563Z,49.37
2023-05-01T17:18:14.421Z,50.32
2023-05-01T17:20:43.441Z,50.64
2023-05-01T17:23:15.461Z,51.42
2023-05-01T17:25:46.265Z,51.58
2023-05-01T17:28:16.643Z,51.89
2023-05-01T17:30:45.759Z,52.44
2023-05-01T17:33:16.115Z,52.90
2023-05-01T17:35:47.006Z,53.99
2023-05-01T17:38:19.708Z,53.23
2023-05-01T17:40:51.601Z,53.96
2023-05-01T17:43:23.219Z,54.55
2023-05-01T17:45:58.150Z,54.60
2023-05-01T17:48:28.801Z,54.80
2023-05-01T17:51:08.925Z,54.51
2023-05-01T17:53:46.885Z,54.67
2023-05-01T17:56:18.672Z,55.22
2023-05-01T18:01:36.704Z,56.01
2023-05-01T18:04:05.767Z,56.36
2023-05-01T18:06:37.521Z,56.99
2023-05-01T18:09:06.941Z,58.19
2023-05-01T18:11:37.537Z,58.12
2023-05-01T18:14:06.423Z,57.55
2023-05-01T18:16:36.790Z,57.85
2023-05-01T18:19:05.750Z,58.71
2023-05-01T18:21:41.103Z,59.11
2023-05-01T18:24:09.894Z,58.87
2023-05-01T18:26:38.708Z,59.91
2023-05-01T18:29:08.001Z,59.35
2023-05-01T18:31:44.654Z,59.36
2023-05-01T18:34:14.301Z,60.36
2023-05-01T18:36:44.802Z,60.12
2023-05-01T18:39:22.910Z,59.88
2023-05-01T18:41:52.346Z,59.68
2023-05-01T18:44:22.701Z,59.29
2023-05-01T18:46:54.412Z,59.64
2023-05-01T18:49:32.076Z,60.15
2023-05-01T18:52:02.966Z,61.18
2023-05-01T18:54:35.456Z,62.35
2023-05-01T18:57:07.137Z,62.55
2023-05-01T18:59:36.011Z,63.46
2023-05-01T19:02:05.109Z,64.06
2023-05-01T19:04:56.018Z,65.01
2023-05-01T19:07:16.088Z,65.81
2023-05-01T19:09:45.252Z,67.39
2023-05-01T19:12:13.880Z,67.29
2023-05-01T19:14:42.967Z,67.02
2023-05-01T19:17:12.307Z,68.23
2023-05-01T19:19:42.703Z,68.98
2023-05-01T19:22:11.558Z,70.13
2023-05-01T19:24:40.667Z,71.40
2023-05-01T19:27:25.889Z,72.49
2023-05-01T19:29:56.711Z,71.46
2023-05-01T19:32:25.857Z,71.36
2023-05-01T19:34:55.427Z,72.24
2023-05-01T19:37:24.248Z,73.67
2023-05-01T19:39:52.914Z,72.62
2023-05-01T19:42:21.574Z,72.19
2023-05-01T19:44:50.440Z,72.23
2023-05-01T19:47:19.202Z,72.57
2023-05-01T19:49:47.913Z,72.05
2023-05-01T19:52:16.481Z,72.14
2023-05-01T19:54:45.266Z,73.56
2023-05-01T19:57:13.925Z,73.23
2023-05-01T19:59:44.076Z,73.71
2023-05-01T20:02:12.746Z,74.81
2023-05-01T20:04:41.725Z,76.16
2023-05-01T20:07:10.846Z,76.67
2023-05-01T20:09:39.440Z,77.06
2023-05-01T20:12:08.169Z,78.26
2023-05-01T20:14:36.833Z,78.65
2023-05-01T20:17:07.377Z,78.53
2023-05-01T20:19:39.313Z,78.43
2023-05-01T20:22:08.454Z,78.51
2023-05-01T20:24:37.418Z,79.60
2023-05-01T20:27:06.702Z,80.08
2023-05-01T20:29:35.374Z,80.12
2023-05-01T20:32:04.030Z,79.49
2023-05-01T20:34:32.833Z,78.81
2023-05-01T20:37:01.568Z,79.54
2023-05-01T20:39:30.413Z,79.98
2023-05-01T20:41:59.433Z,80.10
2023-05-01T20:44:28.777Z,79.09
2023-05-01T20:46:57.451Z,79.65
2023-05-01T20:49:28.022Z,79.91
2023-05-01T20:51:59.914Z,78.69
2023-05-01T20:54:30.312Z,78.57
2023-05-01T20:57:00.838Z,78.89
2023-05-01T20:59:29.621Z,80.26
2023-05-01T21:01:58.563Z,79.09
2023-05-01T21:04:27.320Z,81.27
2023-05-01T21:06:56.510Z,80.69
2023-05-01T21:09:26.828Z,81.63
2023-05-01T21:11:55.880Z,83.05
2023-05-01T21:14:24.695Z,82.58
2023-05-01T21:16:53.867Z,83.86
2023-05-01T21:19:22.686Z,83.37
2023-05-01T21:21:54.742Z,86.35
2023-05-01T21:24:25.544Z,87.62
2023-05-01T21:26:57.794Z,87.91
2023-05-01T21:29:27.049Z,91.77
2023-05-01T21:31:55.920Z,89.26
2023-05-01T21:34:24.790Z,89.00
2023-05-01T21:36:55.253Z,90.46
2023-05-01T21:39:25.554Z,91.84
2023-05-01T21:41:57.199Z,95.01
2023-05-01T21:44:38.958Z,97.31
2023-05-01T21:47:09.237Z,96.73
2023-05-01T21:49:40.665Z,97.60
2023-05-01T21:52:09.325Z,98.60
2023-05-01T21:54:39.320Z,100.00
2023-05-01T21:57:08.293Z,100.00
2023-05-01T21:59:38.794Z,100.00
2023-05-01T22:02:13.021Z,100.00
2023-05-01T22:04:42.611Z,100.00
2023-05-01T22:07:11.317Z,100.00
2023-05-01T22:09:40.070Z,100.00
2023-05-01T22:12:08.709Z,100.00
2023-05-01T22:14:47.046Z,100.00
2023-05-01T22:17:07.848Z,100.00
2023-05-01T22:19:37.826Z,100.00
2023-05-01T22:22:06.597Z,100.00
2023-05-01T22:24:36.373Z,100.00
2023-05-01T22:27:05.208Z,100.00
2023-05-01T22:29:34.351Z,100.00
2023-05-01T22:32:03.237Z,100.00
2023-05-01T22:34:31.962Z,100.00
2023-05-01T22:37:00.800Z,100.00
2023-05-01T22:39:29.879Z,100.00
2023-05-01T22:41:58.953Z,100.00
2023-05-01T22:44:27.754Z,100.00
2023-05-01T22:46:56.456Z,100.00
2023-05-01T22:49:25.237Z,100.00
2023-05-01T22:51:53.967Z,100.00
2023-05-01T22:54:22.765Z,100.00
2023-05-01T22:56:51.896Z,100.00
2023-05-01T22:59:21.958Z,100.00
2023-05-01T23:01:51.039Z,100.00
2023-05-01T23:04:19.968Z,100.00
2023-05-01T23:06:48.830Z,100.00
2023-05-01T23:09:17.938Z,100.00
2023-05-01T23:11:47.938Z,100.00
2023-05-01T23:14:19.882Z,100.00
2023-05-01T23:16:51.416Z,100.00
2023-05-01T23:19:26.026Z,100.00
2023-05-01T23:22:09.459Z,100.00
2023-05-01T23:24:50.590Z,100.00
2023-05-01T23:27:21.844Z,100.00
2023-05-01T23:29:59.051Z,100.00
2023-05-01T23:32:33.015Z,100.00
2023-05-01T23:35:07.814Z,100.00
2023-05-01T23:37:36.564Z,100.00
2023-05-01T23:40:09.627Z,100.00
2023-05-01T23:42:39.383Z,100.00
2023-05-01T23:45:09.585Z,100.00
2023-05-01T23:47:42.011Z,100.00
2023-05-01T23:50:11.745Z,100.00
2023-05-01T23:52:40.501Z,100.00
2023-05-01T23:55:09.395Z,100.00
2023-05-01T23:57:38.118Z,100.00
